Time;durP1;ratioP1;P1;durP2;ratioP2;P2;SDS_P1;SDS_P2;PMS_P1;PMS_P2;Temp;Humidity;BMP_temperature;BMP_pressure;BME280_temperature;BME280_humidity;BME280_pressure;Samples;Min_cycle;Max_cycle;Signal;HPM_P1;HPM_P2
2022/12/09 00:01:34;;;;;;;13.57;6.97;;;3.10;99.90;;;;;;5115718;27;20032;-38
2022/12/09 00:04:00;;;;;;;15.00;7.00;;;3.10;99.90;;;;;;5117783;27;20122;-40
2022/12/09 00:06:27;;;;;;;15.63;7.32;;;3.10;99.90;;;;;;5115785;27;20513;-38
2022/12/09 00:08:55;;;;;;;12.75;7.30;;;3.10;99.90;;;;;;5127155;27;20082;-39
2022/12/09 00:11:22;;;;;;;16.00;8.10;;;3.10;99.90;;;;;;5122313;27;20048;-43
2022/12/09 00:13:49;;;;;;;13.30;7.22;;;3.10;99.90;;;;;;5119064;27;20489;-38
2022/12/09 00:16:14;;;;;;;14.77;7.20;;;3.10;99.90;;;;;;5121794;27;20046;-40
2022/12/09 00:18:41;;;;;;;16.42;8.25;;;3.10;99.90;;;;;;5124524;27;20504;-39
2022/12/09 00:21:21;;;;;;;15.27;7.60;;;3.10;99.90;;;;;;5124402;27;20122;-39
2022/12/09 00:23:47;;;;;;;14.95;7.50;;;3.10;99.90;;;;;;5109632;27;20043;-39
2022/12/09 00:26:13;;;;;;;16.55;8.23;;;3.10;99.90;;;;;;5120838;27;20039;-39
2022/12/09 00:28:39;;;;;;;13.25;7.18;;;3.10;99.90;;;;;;5117181;27;20039;-39
2022/12/09 00:31:06;;;;;;;13.73;7.00;;;3.00;99.90;;;;;;5117833;27;20575;-39
2022/12/09 00:33:33;;;;;;;15.23;7.78;;;3.00;99.90;;;;;;5120155;27;20074;-39
2022/12/09 00:36:08;;;;;;;16.90;9.30;;;3.00;99.90;;;;;;5120961;27;20035;-40
2022/12/09 00:38:34;;;;;;;21.63;9.07;;;3.10;99.90;;;;;;5103853;27;20042;-40
2022/12/09 00:41:00;;;;;;;18.58;7.95;;;3.10;99.90;;;;;;5117050;27;20130;-41
2022/12/09 00:43:26;;;;;;;19.20;9.98;;;3.10;99.90;;;;;;5108398;27;20031;-39
2022/12/09 00:45:52;;;;;;;19.08;9.55;;;3.10;99.90;;;;;;5108454;27;20039;-39
2022/12/09 00:48:17;;;;;;;14.63;7.57;;;3.10;99.90;;;;;;5112830;27;20035;-40
2022/12/09 00:50:44;;;;;;;17.70;9.02;;;3.10;99.90;;;;;;5099648;27;20043;-40
2022/12/09 00:53:10;;;;;;;13.43;6.63;;;3.10;99.90;;;;;;5125308;27;20136;-39
2022/12/09 00:55:36;;;;;;;13.05;6.80;;;3.10;99.90;;;;;;5113053;27;20039;-40
2022/12/09 00:58:02;;;;;;;13.18;6.53;;;3.10;99.90;;;;;;5105833;27;20413;-39
2022/12/09 01:00:28;;;;;;;10.32;5.00;;;3.10;99.90;;;;;;5116954;27;20496;-39
2022/12/09 01:02:53;;;;;;;11.48;6.18;;;3.10;99.90;;;;;;5115414;27;20039;-40
2022/12/09 01:05:19;;;;;;;11.30;6.30;;;3.10;99.90;;;;;;5114264;27;20038;-40
2022/12/09 01:07:45;;;;;;;17.92;8.35;;;3.10;99.90;;;;;;5119563;27;20078;-39
2022/12/09 01:10:10;;;;;;;17.42;9.40;;;3.10;99.90;;;;;;5116760;27;20039;-39
2022/12/09 01:12:37;;;;;;;19.83;8.30;;;3.10;99.90;;;;;;5114388;27;20031;-40
2022/12/09 01:15:04;;;;;;;11.00;5.55;;;3.10;99.90;;;;;;5112462;27;20145;-39
2022/12/09 01:17:30;;;;;;;11.88;5.43;;;3.00;99.90;;;;;;5121308;27;20119;-39
2022/12/09 01:19:55;;;;;;;13.35;6.00;;;3.10;99.90;;;;;;5119664;27;20151;-39
2022/12/09 01:22:21;;;;;;;11.65;5.32;;;3.00;99.90;;;;;;5118483;27;20035;-40
2022/12/09 01:24:47;;;;;;;13.05;5.70;;;3.00;99.90;;;;;;5118094;27;20088;-39
2022/12/09 01:27:12;;;;;;;10.82;6.55;;;3.10;99.90;;;;;;5116766;27;20050;-39
2022/12/09 01:29:38;;;;;;;11.77;5.93;;;3.00;99.90;;;;;;5120448;27;20035;-39
2022/12/09 01:32:04;;;;;;;12.52;5.90;;;3.00;99.90;;;;;;5117446;27;20047;-39
2022/12/09 01:34:30;;;;;;;11.02;4.75;;;3.00;99.90;;;;;;5116447;27;20114;-39
2022/12/09 01:36:55;;;;;;;9.30;4.75;;;3.00;99.90;;;;;;5115654;27;20039;-39
2022/12/09 01:39:21;;;;;;;11.50;5.40;;;3.10;99.90;;;;;;5121846;27;20105;-40
2022/12/09 01:41:50;;;;;;;11.80;5.80;;;3.00;99.90;;;;;;5113433;27;20031;-39
2022/12/09 01:44:18;;;;;;;12.77;5.72;;;3.00;99.90;;;;;;5118075;27;20495;-40
2022/12/09 01:46:45;;;;;;;9.32;4.55;;;3.00;99.90;;;;;;5114863;27;20047;-39
2022/12/09 01:49:19;;;;;;;10.18;5.30;;;3.00;99.90;;;;;;5122316;27;20054;-41
2022/12/09 01:51:50;;;;;;;10.30;5.65;;;3.00;99.90;;;;;;5113143;27;20043;-39
2022/12/09 01:54:16;;;;;;;8.60;4.03;;;3.00;99.90;;;;;;5117273;27;20040;-40
2022/12/09 01:56:42;;;;;;;8.63;4.75;;;2.90;99.90;;;;;;5120017;27;20043;-39
2022/12/09 01:59:11;;;;;;;10.30;5.32;;;2.90;99.90;;;;;;5117583;27;20042;-39
2022/12/09 02:01:38;;;;;;;10.52;5.18;;;2.90;99.90;;;;;;5116616;27;20042;-39
2022/12/09 02:04:04;;;;;;;14.13;5.50;;;2.90;99.90;;;;;;5092294;27;20040;-39
2022/12/09 02:06:30;;;;;;;9.77;5.97;;;2.90;99.90;;;;;;5119437;27;20051;-39
2022/12/09 02:08:57;;;;;;;8.02;4.10;;;2.90;99.90;;;;;;5102373;27;20483;-39
2022/12/09 02:12:02;;;;;;;8.20;4.15;;;2.80;99.90;;;;;;5112439;27;20050;-39
2022/12/09 02:14:40;;;;;;;10.48;5.13;;;2.90;99.90;;;;;;5103639;27;20071;-39
2022/12/09 02:17:24;;;;;;;9.45;4.72;;;2.80;99.90;;;;;;5115047;27;20122;-39
2022/12/09 02:20:00;;;;;;;9.68;4.72;;;2.80;99.90;;;;;;5111434;27;20156;-39
2022/12/09 02:22:44;;;;;;;9.25;4.88;;;2.80;99.90;;;;;;5111436;27;20044;-40
2022/12/09 02:25:14;;;;;;;8.30;4.57;;;2.80;99.90;;;;;;5120408;27;20038;-39
2022/12/09 02:28:20;;;;;;;8.40;4.30;;;2.80;99.90;;;;;;5117361;27;20392;-39
2022/12/09 02:30:54;;;;;;;10.15;4.50;;;2.80;99.90;;;;;;5077507;27;20047;-44
2022/12/09 02:33:57;;;;;;;9.45;4.72;;;2.80;99.90;;;;;;5118442;27;20044;-48
2022/12/09 02:36:28;;;;;;;10.80;5.50;;;2.80;99.90;;;;;;5115685;27;20047;-39
2022/12/09 02:38:55;;;;;;;8.85;4.78;;;2.80;99.90;;;;;;5118710;27;20557;-39
2022/12/09 02:41:25;;;;;;;10.10;4.90;;;2.80;99.90;;;;;;5115436;27;20084;-40
2022/12/09 02:43:56;;;;;;;9.73;4.55;;;2.80;99.90;;;;;;5115672;27;20043;-39
2022/12/09 02:46:23;;;;;;;10.35;4.60;;;2.80;99.90;;;;;;5098187;28;20046;-45
2022/12/09 02:48:53;;;;;;;9.45;4.22;;;2.80;99.90;;;;;;5114776;27;20113;-39
2022/12/09 02:51:21;;;;;;;9.88;5.03;;;2.80;99.90;;;;;;5113597;27;20035;-39
2022/12/09 02:53:52;;;;;;;8.70;4.40;;;2.80;99.90;;;;;;5110722;28;20531;-39
2022/12/09 02:56:19;;;;;;;8.50;4.70;;;2.80;99.90;;;;;;5121790;28;20031;-40
2022/12/09 02:58:45;;;;;;;10.23;4.32;;;2.90;99.90;;;;;;5110029;27;20052;-39
2022/12/09 03:01:40;;;;;;;7.07;3.38;;;2.80;99.90;;;;;;5108779;28;20675;-39
2022/12/09 03:04:07;;;;;;;9.55;4.20;;;2.80;99.90;;;;;;5113705;27;20043;-39
2022/12/09 03:06:45;;;;;;;10.00;4.47;;;2.80;99.90;;;;;;5115980;28;20485;-40
2022/12/09 03:09:21;;;;;;;10.18;4.68;;;2.80;99.90;;;;;;5115559;27;20109;-39
2022/12/09 03:11:48;;;;;;;7.95;4.18;;;2.80;99.90;;;;;;5120517;28;20039;-39
2022/12/09 03:14:40;;;;;;;8.38;4.57;;;2.80;99.90;;;;;;5115741;28;20089;-39
2022/12/09 03:17:18;;;;;;;9.27;4.50;;;2.80;99.90;;;;;;5113663;27;20051;-39
2022/12/09 03:19:59;;;;;;;9.13;4.30;;;2.80;99.90;;;;;;5106808;27;20049;-39
2022/12/09 03:22:27;;;;;;;7.78;3.90;;;2.70;99.90;;;;;;5096751;28;20043;-39
2022/12/09 03:25:16;;;;;;;7.95;4.15;;;2.70;99.90;;;;;;5108456;28;20039;-40
2022/12/09 03:28:24;;;;;;;9.13;3.50;;;2.70;99.90;;;;;;5109340;27;20035;-39
2022/12/09 03:30:52;;;;;;;9.95;4.60;;;2.60;99.90;;;;;;5076108;27;20050;-41
2022/12/09 03:33:20;;;;;;;8.15;3.90;;;2.70;99.90;;;;;;5113068;27;20073;-39
2022/12/09 03:35:56;;;;;;;8.40;4.13;;;2.60;99.90;;;;;;5119380;27;20077;-39
2022/12/09 03:38:25;;;;;;;13.65;5.00;;;2.60;99.90;;;;;;5117920;27;20795;-39
2022/12/09 03:40:59;;;;;;;9.88;5.00;;;2.60;99.90;;;;;;5126497;27;20484;-39
2022/12/09 03:43:29;;;;;;;8.32;4.38;;;2.50;99.90;;;;;;5112133;27;20050;-40
2022/12/09 03:45:56;;;;;;;12.85;5.43;;;2.50;99.90;;;;;;5115615;27;20055;-39
2022/12/09 03:48:23;;;;;;;11.35;5.40;;;2.50;99.90;;;;;;5116777;27;20039;-39
2022/12/09 03:50:58;;;;;;;12.50;5.63;;;2.50;99.90;;;;;;5111647;27;20043;-40
2022/12/09 03:53:40;;;;;;;10.85;5.53;;;2.50;99.90;;;;;;5114274;27;20393;-41
2022/12/09 03:56:20;;;;;;;14.63;6.10;;;2.50;99.90;;;;;;5123962;27;20396;-39
2022/12/09 03:58:48;;;;;;;9.50;5.25;;;2.50;99.90;;;;;;5117192;27;20065;-39
2022/12/09 04:01:15;;;;;;;9.65;4.85;;;2.50;99.90;;;;;;5114785;27;20042;-41
2022/12/09 04:03:43;;;;;;;10.32;4.65;;;2.50;99.90;;;;;;5120061;27;20391;-39
2022/12/09 04:06:09;;;;;;;10.90;5.63;;;2.50;99.90;;;;;;5120249;27;20502;-39
2022/12/09 04:08:35;;;;;;;10.30;4.97;;;2.50;99.90;;;;;;5119751;27;20028;-39
2022/12/09 04:11:00;;;;;;;12.10;5.93;;;2.50;99.90;;;;;;5119220;27;20035;-39
2022/12/09 04:13:26;;;;;;;11.02;5.35;;;2.50;99.90;;;;;;5105745;27;20088;-39
2022/12/09 04:15:52;;;;;;;10.68;4.82;;;2.50;99.90;;;;;;5118746;27;20023;-39
2022/12/09 04:18:17;;;;;;;11.23;5.30;;;2.50;99.90;;;;;;5118656;27;20036;-39
2022/12/09 04:20:43;;;;;;;10.80;5.68;;;2.40;99.90;;;;;;5112901;27;21475;-39
2022/12/09 04:23:09;;;;;;;11.32;5.60;;;2.40;99.90;;;;;;5118664;27;20038;-39
2022/12/09 04:25:36;;;;;;;10.35;4.72;;;2.30;99.90;;;;;;5121759;27;20198;-39
2022/12/09 04:28:02;;;;;;;10.60;5.55;;;2.20;99.90;;;;;;5106706;27;20040;-39
2022/12/09 04:30:27;;;;;;;10.52;5.00;;;2.10;99.90;;;;;;5117303;27;20116;-40
2022/12/09 04:32:53;;;;;;;12.70;5.78;;;2.10;99.90;;;;;;5116428;27;20514;-39
2022/12/09 04:35:19;;;;;;;9.23;5.00;;;2.00;99.90;;;;;;5125447;27;20563;-39
2022/12/09 04:37:44;;;;;;;10.30;5.03;;;1.80;99.90;;;;;;5112835;27;20523;-39
2022/12/09 04:40:11;;;;;;;10.10;4.82;;;1.80;99.90;;;;;;5113079;27;20519;-39
2022/12/09 04:42:36;;;;;;;9.98;4.57;;;1.70;99.90;;;;;;5112380;27;20039;-39
2022/12/09 04:45:04;;;;;;;13.02;5.60;;;1.60;99.90;;;;;;5122670;27;20501;-39
2022/12/09 04:47:31;;;;;;;10.82;5.32;;;1.60;99.90;;;;;;5125874;27;20563;-40
2022/12/09 04:49:57;;;;;;;11.80;5.50;;;1.50;99.90;;;;;;5125025;27;20039;-39
2022/12/09 04:52:22;;;;;;;11.23;5.55;;;1.40;99.90;;;;;;5118787;27;20042;-39
2022/12/09 04:54:49;;;;;;;10.35;5.47;;;1.40;99.90;;;;;;5118863;27;20092;-39
2022/12/09 04:57:15;;;;;;;12.57;6.07;;;1.40;99.90;;;;;;5119039;27;20233;-39
2022/12/09 04:59:41;;;;;;;13.18;6.35;;;1.30;99.90;;;;;;5110547;27;20039;-39
2022/12/09 05:02:06;;;;;;;15.30;7.55;;;1.30;99.90;;;;;;5115050;27;20392;-39
2022/12/09 05:04:32;;;;;;;14.20;6.78;;;1.30;99.90;;;;;;5120429;27;20114;-39
2022/12/09 05:06:58;;;;;;;15.05;6.32;;;1.30;99.90;;;;;;5124235;27;20038;-39
2022/12/09 05:09:23;;;;;;;12.93;5.90;;;1.20;99.90;;;;;;5096728;27;20039;-40
2022/12/09 05:11:50;;;;;;;14.55;6.53;;;1.20;99.90;;;;;;5113437;27;20035;-40
2022/12/09 05:14:16;;;;;;;14.07;6.78;;;1.20;99.90;;;;;;5099759;27;20200;-40
2022/12/09 05:16:42;;;;;;;12.75;7.05;;;1.20;99.90;;;;;;5120747;27;20066;-39
2022/12/09 05:19:08;;;;;;;12.30;6.32;;;1.10;99.90;;;;;;5119895;27;20394;-39
2022/12/09 05:21:34;;;;;;;15.15;7.47;;;1.10;99.90;;;;;;5116773;27;20039;-39
2022/12/09 05:24:04;;;;;;;15.95;7.72;;;1.10;99.90;;;;;;5115416;27;20053;-38
2022/12/09 05:26:29;;;;;;;12.95;6.53;;;1.00;99.90;;;;;;5112775;27;20043;-40
2022/12/09 05:28:55;;;;;;;12.13;5.85;;;0.90;99.90;;;;;;5120148;27;20039;-39
2022/12/09 05:31:22;;;;;;;11.00;6.07;;;0.90;99.90;;;;;;5120588;27;20130;-40
2022/12/09 05:33:48;;;;;;;15.20;6.93;;;0.90;99.90;;;;;;5122634;27;20050;-40
2022/12/09 05:36:17;;;;;;;14.15;6.85;;;0.80;99.90;;;;;;5112656;27;20404;-39
2022/12/09 05:38:43;;;;;;;13.73;6.57;;;0.80;99.90;;;;;;5117403;27;20539;-39
2022/12/09 05:41:09;;;;;;;15.15;7.20;;;0.70;99.90;;;;;;5101596;27;20083;-40
2022/12/09 05:43:35;;;;;;;11.48;5.88;;;0.70;99.90;;;;;;5113374;27;20034;-39
2022/12/09 05:46:02;;;;;;;13.60;7.05;;;0.70;99.90;;;;;;5117941;27;20050;-39
2022/12/09 05:48:29;;;;;;;12.48;6.18;;;0.70;99.90;;;;;;5119955;27;20080;-40
2022/12/09 05:51:05;;;;;;;13.93;7.78;;;0.70;99.90;;;;;;5114863;27;20031;-39
2022/12/09 05:53:32;;;;;;;12.15;6.38;;;0.60;99.90;;;;;;5107834;27;20043;-39
2022/12/09 05:55:58;;;;;;;17.70;8.13;;;0.60;99.90;;;;;;5111974;27;20118;-39
2022/12/09 05:58:23;;;;;;;16.98;8.05;;;0.70;99.90;;;;;;5123037;27;20042;-39
2022/12/09 06:00:50;;;;;;;15.10;7.43;;;0.70;99.90;;;;;;5117481;27;20039;-39
2022/12/09 06:03:16;;;;;;;17.23;8.50;;;0.70;99.90;;;;;;5110586;27;20039;-39
2022/12/09 06:05:41;;;;;;;16.95;8.05;;;0.60;99.90;;;;;;5120125;27;20038;-39
2022/12/09 06:08:07;;;;;;;15.73;8.23;;;0.60;99.90;;;;;;5118757;27;21237;-40
2022/12/09 06:10:33;;;;;;;13.73;6.95;;;0.60;99.90;;;;;;5119688;27;20039;-41
2022/12/09 06:12:59;;;;;;;18.05;8.48;;;0.50;99.90;;;;;;5113373;27;20487;-39
2022/12/09 06:15:25;;;;;;;16.63;8.65;;;0.50;99.90;;;;;;5123266;27;20031;-43
2022/12/09 06:17:50;;;;;;;15.57;7.88;;;0.50;99.90;;;;;;5116966;27;20112;-39
2022/12/09 06:20:17;;;;;;;14.68;7.65;;;0.50;99.90;;;;;;5116682;27;20042;-43
2022/12/09 06:22:43;;;;;;;15.07;7.43;;;0.40;99.90;;;;;;5123767;27;20130;-39
2022/12/09 06:25:09;;;;;;;18.05;8.77;;;0.30;99.90;;;;;;5119022;27;20096;-40
2022/12/09 06:27:35;;;;;;;14.00;7.43;;;0.30;99.90;;;;;;5124823;27;20043;-39
2022/12/09 06:30:01;;;;;;;14.10;7.03;;;0.20;99.90;;;;;;5117735;27;20481;-39
2022/12/09 06:32:29;;;;;;;15.32;8.05;;;0.20;99.90;;;;;;5118837;27;20051;-39
2022/12/09 06:34:54;;;;;;;14.52;7.50;;;0.20;99.90;;;;;;5118505;27;20597;-40
2022/12/09 06:37:20;;;;;;;17.75;8.23;;;0.10;99.90;;;;;;5078410;27;20084;-39
2022/12/09 06:39:46;;;;;;;16.55;7.35;;;0.10;99.90;;;;;;5068841;28;20035;-39
2022/12/09 06:42:11;;;;;;;14.70;7.88;;;0.10;99.90;;;;;;5075377;28;20032;-39
2022/12/09 06:44:38;;;;;;;19.35;8.27;;;0.10;99.90;;;;;;5070740;28;20032;-39
2022/12/09 06:47:05;;;;;;;18.13;8.63;;;0.20;99.90;;;;;;5071790;28;20158;-39
2022/12/09 06:49:31;;;;;;;15.07;8.20;;;0.20;99.90;;;;;;5070242;28;20489;-39
2022/12/09 06:51:56;;;;;;;21.17;9.65;;;0.30;99.90;;;;;;5065053;28;20036;-39
2022/12/09 06:54:22;;;;;;;18.90;9.55;;;0.40;99.90;;;;;;5069232;28;20028;-39
2022/12/09 06:56:48;;;;;;;19.65;8.63;;;0.40;99.90;;;;;;5065156;28;20028;-39
2022/12/09 06:59:13;;;;;;;24.25;9.73;;;0.50;99.90;;;;;;5072683;28;20154;-39
2022/12/09 07:01:39;;;;;;;17.88;8.65;;;0.60;99.90;;;;;;5070557;28;20040;-39
2022/12/09 07:04:05;;;;;;;20.77;8.98;;;0.70;99.90;;;;;;5073129;28;20067;-39
2022/12/09 07:06:42;;;;;;;22.98;10.57;;;0.80;99.90;;;;;;5072668;28;20046;-39
2022/12/09 07:09:16;;;;;;;22.73;10.18;;;0.80;99.90;;;;;;5075302;28;20036;-39
2022/12/09 07:11:44;;;;;;;29.30;10.18;;;0.90;99.90;;;;;;5070717;28;20132;-38
2022/12/09 07:14:10;;;;;;;21.08;10.07;;;0.90;99.90;;;;;;5072909;28;20041;-39
2022/12/09 07:16:36;;;;;;;21.23;9.50;;;1.00;99.90;;;;;;5073406;28;20668;-39
2022/12/09 07:19:03;;;;;;;70.75;12.73;;;1.00;99.90;;;;;;5071656;28;21012;-39
2022/12/09 07:21:29;;;;;;;149.02;17.77;;;1.00;99.90;;;;;;5074566;28;20048;-39
2022/12/09 07:23:59;;;;;;;101.20;15.90;;;1.00;99.90;;;;;;5067200;28;20048;-38
2022/12/09 07:26:25;;;;;;;138.82;16.77;;;1.00;99.90;;;;;;5073256;28;20398;-39
2022/12/09 07:28:50;;;;;;;100.93;16.92;;;1.00;99.90;;;;;;5076310;28;20659;-39
2022/12/09 07:31:24;;;;;;;170.10;22.90;;;1.00;99.90;;;;;;5076660;28;20074;-39
2022/12/09 07:33:51;;;;;;;68.25;12.20;;;1.00;99.90;;;;;;5073049;28;20209;-39
2022/12/09 07:36:17;;;;;;;60.55;15.52;;;1.10;99.90;;;;;;5076420;28;20040;-39
2022/12/09 07:38:43;;;;;;;52.63;14.07;;;1.10;99.90;;;;;;5075659;28;20044;-39
2022/12/09 07:41:16;;;;;;;76.75;16.98;;;1.10;99.90;;;;;;5078690;28;20085;-39
2022/12/09 07:43:44;;;;;;;109.50;16.92;;;1.10;99.90;;;;;;5073971;28;20037;-38
2022/12/09 07:46:11;;;;;;;179.25;19.83;;;1.10;99.90;;;;;;5075814;28;20374;-37
2022/12/09 07:48:36;;;;;;;216.23;22.00;;;1.10;99.90;;;;;;5080252;28;20063;-37
2022/12/09 07:51:03;;;;;;;191.43;24.13;;;1.00;99.90;;;;;;5069236;28;20570;-38
2022/12/09 07:53:30;;;;;;;200.48;22.00;;;1.00;99.90;;;;;;5080294;28;20045;-37
2022/12/09 07:56:01;;;;;;;213.75;24.98;;;1.00;99.90;;;;;;5081045;28;20044;-37
2022/12/09 07:58:27;;;;;;;237.75;24.42;;;1.00;99.90;;;;;;5070431;28;20040;-38
2022/12/09 08:00:53;;;;;;;193.07;20.45;;;1.00;99.90;;;;;;5074963;28;20115;-37
2022/12/09 08:03:18;;;;;;;277.42;27.13;;;0.90;99.90;;;;;;5069382;28;20092;-38
2022/12/09 08:05:51;;;;;;;243.88;26.10;;;0.80;99.90;;;;;;5081063;28;20520;-37
2022/12/09 08:08:17;;;;;;;188.20;21.65;;;0.90;99.90;;;;;;5078018;28;20066;-38
2022/12/09 08:10:45;;;;;;;149.52;14.55;;;0.90;99.90;;;;;;5071987;28;20040;-37
2022/12/09 08:13:13;;;;;;;189.95;17.17;;;0.90;99.90;;;;;;5074489;28;20028;-39
2022/12/09 08:15:39;;;;;;;227.57;23.90;;;0.80;99.90;;;;;;5072981;28;20051;-38
2022/12/09 08:18:04;;;;;;;267.48;28.55;;;0.80;99.90;;;;;;5071559;28;20033;-37
2022/12/09 08:20:30;;;;;;;242.57;26.35;;;0.80;99.90;;;;;;5074761;28;20037;-38
2022/12/09 08:22:56;;;;;;;164.80;17.13;;;0.80;99.90;;;;;;5075515;28;20044;-38
2022/12/09 08:25:22;;;;;;;136.45;16.95;;;0.70;99.90;;;;;;5076901;28;20106;-37
2022/12/09 08:27:48;;;;;;;235.55;22.67;;;0.70;99.90;;;;;;5071862;28;20565;-38
2022/12/09 08:30:14;;;;;;;192.13;19.27;;;0.70;99.90;;;;;;5074798;28;20700;-37
2022/12/09 08:32:40;;;;;;;212.93;24.88;;;0.70;99.90;;;;;;5075840;28;20084;-38
2022/12/09 08:35:08;;;;;;;138.73;18.02;;;0.70;99.90;;;;;;5076793;28;20091;-37
2022/12/09 08:37:34;;;;;;;88.85;14.63;;;0.60;99.90;;;;;;5080006;28;20039;-37
2022/12/09 08:40:00;;;;;;;289.90;24.50;;;0.60;99.90;;;;;;5074354;28;20150;-37
2022/12/09 08:42:28;;;;;;;162.38;16.73;;;0.60;99.90;;;;;;5078225;28;20044;-37
2022/12/09 08:44:54;;;;;;;142.50;17.77;;;0.60;99.90;;;;;;5073215;28;20048;-38
2022/12/09 08:47:20;;;;;;;176.13;20.23;;;0.60;99.90;;;;;;5067909;28;20531;-37
2022/12/09 08:49:45;;;;;;;184.63;17.88;;;0.60;99.90;;;;;;5068357;28;20481;-37
2022/12/09 08:52:11;;;;;;;137.15;15.52;;;0.50;99.90;;;;;;5076210;28;20534;-37
2022/12/09 08:54:37;;;;;;;242.45;22.13;;;0.50;99.90;;;;;;5077332;28;20107;-38
2022/12/09 08:57:02;;;;;;;114.30;13.23;;;0.40;99.90;;;;;;5070933;28;20068;-37
2022/12/09 08:59:28;;;;;;;233.85;20.73;;;0.40;99.90;;;;;;5070052;28;20063;-38
2022/12/09 09:01:54;;;;;;;174.95;17.05;;;0.40;99.90;;;;;;5076901;28;20047;-38
2022/12/09 09:04:21;;;;;;;71.45;9.80;;;0.30;99.90;;;;;;5071856;28;20032;-38
2022/12/09 09:06:49;;;;;;;317.13;32.92;;;0.30;99.90;;;;;;5072959;28;20054;-38
2022/12/09 09:09:15;;;;;;;144.05;14.55;;;0.30;99.90;;;;;;5077084;28;20123;-37
2022/12/09 09:11:42;;;;;;;221.90;23.90;;;0.20;99.90;;;;;;5073848;28;20090;-37
2022/12/09 09:14:09;;;;;;;175.80;16.95;;;0.20;99.90;;;;;;5068178;28;20039;-37
2022/12/09 09:16:38;;;;;;;53.95;9.05;;;0.20;99.90;;;;;;5074272;28;20036;-38
2022/12/09 09:19:04;;;;;;;109.40;11.00;;;0.20;99.90;;;;;;5068913;28;20489;-37
2022/12/09 09:21:31;;;;;;;121.63;15.13;;;0.20;99.90;;;;;;5076523;28;20057;-38
2022/12/09 09:23:56;;;;;;;119.00;16.00;;;0.10;99.90;;;;;;5078799;28;20878;-37
2022/12/09 09:26:24;;;;;;;179.48;20.10;;;0.10;99.90;;;;;;5073675;28;20036;-38
2022/12/09 09:28:51;;;;;;;135.90;15.20;;;0.10;99.90;;;;;;5068970;28;20040;-37
2022/12/09 09:31:21;;;;;;;213.10;24.13;;;0.20;99.90;;;;;;5073176;28;20056;-37
2022/12/09 09:33:47;;;;;;;131.18;21.27;;;0.20;99.90;;;;;;5053697;28;20062;-37
2022/12/09 09:36:22;;;;;;;107.53;13.73;;;0.20;99.90;;;;;;5048224;28;20040;-37
2022/12/09 09:38:50;;;;;;;173.38;19.33;;;0.20;99.90;;;;;;5053740;28;20036;-37
2022/12/09 09:41:24;;;;;;;117.63;11.35;;;0.20;99.90;;;;;;5047354;28;20077;-37
2022/12/09 09:43:51;;;;;;;64.78;13.25;;;0.20;99.90;;;;;;5054434;28;21246;-39
2022/12/09 09:46:32;;;;;;;56.72;11.68;;;0.20;99.90;;;;;;5054223;28;20506;-39
2022/12/09 09:49:00;;;;;;;56.42;12.13;;;0.30;99.90;;;;;;5052080;28;20120;-38
2022/12/09 09:51:27;;;;;;;60.60;11.52;;;0.30;99.90;;;;;;5055304;28;20044;-37
2022/12/09 09:53:53;;;;;;;61.85;13.10;;;0.40;99.90;;;;;;5050736;28;20115;-37
2022/12/09 09:56:35;;;;;;;92.53;15.07;;;0.40;99.90;;;;;;5046675;28;20639;-38
2022/12/09 09:59:19;;;;;;;45.67;12.30;;;0.40;99.90;;;;;;5050520;28;20032;-37
2022/12/09 10:02:06;;;;;;;65.18;10.82;;;0.50;99.90;;;;;;5044570;28;20038;-38
2022/12/09 10:04:44;;;;;;;106.40;12.93;;;0.60;99.90;;;;;;5039464;28;20045;-37
2022/12/09 10:07:45;;;;;;;65.68;12.45;;;0.70;99.90;;;;;;5057556;28;20178;-37
2022/12/09 10:10:56;;;;;;;96.75;16.05;;;0.70;99.90;;;;;;5051256;28;20053;-37
2022/12/09 10:13:44;;;;;;;70.72;13.07;;;0.80;99.90;;;;;;5050901;28;20053;-37
2022/12/09 10:16:36;;;;;;;64.50;14.82;;;0.80;99.90;;;;;;5033598;28;20614;-38
2022/12/09 10:19:10;;;;;;;70.72;16.10;;;0.80;99.90;;;;;;5054496;28;20527;-37
2022/12/09 10:21:43;;;;;;;62.17;11.82;;;0.90;99.90;;;;;;5050021;28;20052;-39
2022/12/09 10:24:20;;;;;;;46.00;10.43;;;0.90;99.90;;;;;;5054083;28;20505;-37
2022/12/09 10:27:20;;;;;;;46.80;10.35;;;1.00;99.90;;;;;;5059881;28;20042;-38
2022/12/09 10:30:02;;;;;;;49.17;10.43;;;1.10;99.90;;;;;;5049241;28;20061;-37
2022/12/09 10:32:34;;;;;;;30.35;7.35;;;1.20;99.90;;;;;;5038931;28;20053;-39
2022/12/09 10:35:10;;;;;;;60.67;10.57;;;1.20;99.90;;;;;;5054136;28;20032;-38
2022/12/09 10:37:36;;;;;;;51.83;10.35;;;1.10;99.90;;;;;;5052745;28;20071;-38
2022/12/09 10:40:15;;;;;;;112.70;13.38;;;1.10;99.90;;;;;;5053240;28;20135;-38
2022/12/09 10:45:54;;;;;;;42.75;9.63;;;1.10;99.90;;;;;;5048676;28;20522;-38
2022/12/09 10:48:30;;;;;;;37.03;8.70;;;1.30;99.90;;;;;;5031934;28;20043;-37
2022/12/09 10:50:58;;;;;;;81.05;12.05;;;1.40;99.90;;;;;;5054205;28;20068;-37
2022/12/09 10:53:25;;;;;;;28.05;8.00;;;1.40;99.90;;;;;;5053358;28;20037;-38
2022/12/09 10:55:54;;;;;;;35.28;12.27;;;1.50;99.90;;;;;;5050631;28;20040;-39
2022/12/09 10:58:28;;;;;;;28.98;10.43;;;1.60;99.90;;;;;;5049548;28;20036;-38
2022/12/09 11:01:01;;;;;;;32.80;9.95;;;1.70;99.90;;;;;;5046723;28;20494;-37
2022/12/09 11:03:48;;;;;;;20.13;9.15;;;1.80;99.90;;;;;;5050373;28;20040;-38
2022/12/09 11:06:29;;;;;;;22.33;9.30;;;2.10;99.90;;;;;;5047935;28;20116;-37
2022/12/09 11:09:00;;;;;;;25.77;9.52;;;2.30;99.90;;;;;;5044653;28;20059;-38
2022/12/09 11:11:38;;;;;;;23.73;9.32;;;2.40;99.90;;;;;;5046198;28;20033;-38
2022/12/09 11:14:21;;;;;;;19.67;8.90;;;2.50;99.90;;;;;;5070003;28;20049;-38
2022/12/09 11:16:58;;;;;;;19.20;9.00;;;2.80;99.90;;;;;;5070803;28;20041;-37
2022/12/09 11:19:35;;;;;;;17.13;8.65;;;3.30;99.90;;;;;;5073451;28;20056;-37
2022/12/09 11:22:38;;;;;;;17.92;9.05;;;4.00;99.90;;;;;;5072589;28;20033;-37
2022/12/09 11:25:28;;;;;;;16.20;8.60;;;4.50;99.90;;;;;;5070119;28;20074;-38
2022/12/09 11:28:05;;;;;;;17.25;8.18;;;5.00;99.90;;;;;;5065465;28;20074;-38
2022/12/09 11:30:35;;;;;;;15.63;8.02;;;5.40;99.90;;;;;;5071856;28;20127;-38
2022/12/09 11:33:30;;;;;;;24.15;9.65;;;5.90;99.90;;;;;;5072891;28;20071;-38
2022/12/09 11:36:18;;;;;;;33.03;9.93;;;6.20;99.90;;;;;;5051620;28;20041;-38
2022/12/09 11:38:46;;;;;;;32.00;9.98;;;6.00;99.90;;;;;;5072225;28;20044;-38
2022/12/09 11:44:31;;;;;;;20.83;8.60;;;5.30;99.90;;;;;;5074812;28;20434;-38
2022/12/09 11:47:04;;;;;;;19.63;9.45;;;5.30;99.90;;;;;;5069729;28;20036;-38
2022/12/09 11:49:34;;;;;;;17.27;9.40;;;5.70;99.90;;;;;;5069941;28;20044;-39
2022/12/09 11:52:17;;;;;;;14.15;7.68;;;6.20;99.90;;;;;;5074285;28;20370;-38
2022/12/09 11:55:10;;;;;;;12.50;7.25;;;6.50;99.90;;;;;;5073894;28;20036;-39
2022/12/09 11:57:51;;;;;;;12.85;7.10;;;7.00;99.90;;;;;;5078373;28;20037;-39
2022/12/09 12:00:21;;;;;;;12.90;6.82;;;7.40;99.90;;;;;;5076827;28;20047;-39
2022/12/09 12:03:15;;;;;;;13.27;6.95;;;7.70;99.90;;;;;;5072191;28;20045;-38
2022/12/09 12:05:48;;;;;;;11.43;6.72;;;7.90;99.90;;;;;;5073536;28;20515;-38
2022/12/09 12:08:32;;;;;;;13.38;7.40;;;8.20;99.90;;;;;;5069644;28;20516;-38
2022/12/09 12:11:08;;;;;;;16.13;7.63;;;8.50;99.90;;;;;;5075977;28;20070;-38
2022/12/09 12:13:46;;;;;;;13.32;7.80;;;8.70;99.90;;;;;;5082176;28;20051;-38
2022/12/09 12:16:40;;;;;;;14.05;7.60;;;8.70;99.90;;;;;;5075045;28;20055;-39
2022/12/09 12:19:30;;;;;;;14.00;7.55;;;8.90;99.90;;;;;;5072767;28;20120;-38
2022/12/09 12:22:16;;;;;;;12.38;6.93;;;9.20;99.90;;;;;;5075499;28;20095;-38
2022/12/09 12:25:02;;;;;;;13.43;7.68;;;9.40;99.90;;;;;;5069661;28;20080;-39
2022/12/09 12:27:59;;;;;;;15.32;7.60;;;9.80;99.90;;;;;;5073080;28;20035;-39
2022/12/09 12:30:49;;;;;;;13.75;7.65;;;9.90;99.50;;;;;;5083173;28;20031;-38
2022/12/09 12:33:44;;;;;;;15.13;8.30;;;9.90;98.30;;;;;;5074728;28;20777;-40
2022/12/09 12:36:15;;;;;;;14.23;7.63;;;10.10;97.00;;;;;;5072491;28;20039;-39
2022/12/09 12:39:03;;;;;;;13.60;7.78;;;10.10;99.10;;;;;;5070188;28;20068;-39
2022/12/09 12:41:40;;;;;;;13.40;7.35;;;10.20;98.20;;;;;;5067911;28;20033;-40
2022/12/09 12:47:37;;;;;;;13.82;8.10;;;9.90;96.20;;;;;;5074258;28;20447;-39
2022/12/09 12:50:32;;;;;;;12.98;7.40;;;9.80;96.00;;;;;;5068477;28;20037;-39
2022/12/09 12:53:19;;;;;;;13.27;6.97;;;9.80;94.00;;;;;;5073162;28;20036;-39
2022/12/09 12:55:48;;;;;;;12.90;7.40;;;9.60;94.90;;;;;;5076966;28;20401;-39
2022/12/09 12:58:41;;;;;;;13.15;7.50;;;9.40;97.40;;;;;;5075221;28;20093;-39
2022/12/09 13:01:23;;;;;;;12.85;7.55;;;8.70;94.90;;;;;;5077950;28;20047;-39
2022/12/09 13:04:36;;;;;;;12.48;7.10;;;7.90;98.20;;;;;;5070876;28;20033;-39
2022/12/09 13:07:23;;;;;;;13.13;6.60;;;7.20;99.00;;;;;;5077006;28;20051;-39
2022/12/09 13:09:58;;;;;;;12.35;7.03;;;6.50;99.90;;;;;;5073747;28;20082;-39
2022/12/09 13:15:18;;;;;;;13.38;6.43;;;5.90;99.90;;;;;;5080455;28;20377;-39
2022/12/09 13:17:46;;;;;;;12.00;6.47;;;6.00;99.90;;;;;;5075056;28;20043;-39